sensor_id;sensor_type;location;lat;lon;timestamp;pressure;altitude;pressure_sealevel;temperature;humidity
70254;BME280;57649;42.968;1.608;2023-07-20T00:01:14;97413.03;;;20.71;87.39
70254;BME280;57649;42.968;1.608;2023-07-20T00:03:39;97419.69;;;20.75;87.32
70254;BME280;57649;42.968;1.608;2023-07-20T00:06:05;97412.44;;;20.69;87.80
70254;BME280;57649;42.968;1.608;2023-07-20T00:08:30;97411.63;;;20.81;87.36
70254;BME280;57649;42.968;1.608;2023-07-20T00:10:56;97402.06;;;20.78;86.88
70254;BME280;57649;42.968;1.608;2023-07-20T00:13:21;97400.88;;;20.74;86.93
70254;BME280;57649;42.968;1.608;2023-07-20T00:15:47;97406.53;;;20.72;86.32
70254;BME280;57649;42.968;1.608;2023-07-20T00:18:13;97404.19;;;20.76;86.72
70254;BME280;57649;42.968;1.608;2023-07-20T00:20:39;97409.03;;;20.86;86.42
70254;BME280;57649;42.968;1.608;2023-07-20T00:23:04;97392.72;;;20.74;86.84
70254;BME280;57649;42.968;1.608;2023-07-20T00:25:29;97396.38;;;20.80;86.51
70254;BME280;57649;42.968;1.608;2023-07-20T00:27:55;97401.47;;;20.88;86.34
70254;BME280;57649;42.968;1.608;2023-07-20T00:30:20;97390.13;;;20.79;85.88
70254;BME280;57649;42.968;1.608;2023-07-20T00:32:46;97384.31;;;20.75;85.66
70254;BME280;57649;42.968;1.608;2023-07-20T00:35:11;97383.81;;;20.79;84.58
70254;BME280;57649;42.968;1.608;2023-07-20T00:37:38;97385.63;;;20.85;84.38
70254;BME280;57649;42.968;1.608;2023-07-20T00:40:04;97389.63;;;20.82;83.79
70254;BME280;57649;42.968;1.608;2023-07-20T00:42:32;97385.41;;;20.86;83.38
70254;BME280;57649;42.968;1.608;2023-07-20T00:44:58;97377.09;;;20.81;84.06
70254;BME280;57649;42.968;1.608;2023-07-20T00:47:23;97379.00;;;20.92;83.22
70254;BME280;57649;42.968;1.608;2023-07-20T00:49:50;97371.66;;;20.93;83.53
70254;BME280;57649;42.968;1.608;2023-07-20T00:52:18;97375.22;;;20.82;84.13
70254;BME280;57649;42.968;1.608;2023-07-20T00:54:44;97376.63;;;20.84;84.02
70254;BME280;57649;42.968;1.608;2023-07-20T00:57:09;97368.72;;;20.83;83.26
70254;BME280;57649;42.968;1.608;2023-07-20T00:59:37;97361.97;;;20.85;82.84
70254;BME280;57649;42.968;1.608;2023-07-20T01:02:03;97361.25;;;20.78;83.19
70254;BME280;57649;42.968;1.608;2023-07-20T01:04:29;97355.31;;;20.69;82.47
70254;BME280;57649;42.968;1.608;2023-07-20T01:07:03;97352.31;;;20.59;83.17
70254;BME280;57649;42.968;1.608;2023-07-20T01:09:53;97355.91;;;20.71;83.27
70254;BME280;57649;42.968;1.608;2023-07-20T01:12:33;97343.09;;;20.60;82.91
70254;BME280;57649;42.968;1.608;2023-07-20T01:15:00;97355.09;;;20.71;81.70
70254;BME280;57649;42.968;1.608;2023-07-20T01:17:26;97343.84;;;20.67;81.18
70254;BME280;57649;42.968;1.608;2023-07-20T01:19:51;97339.34;;;20.61;81.04
70254;BME280;57649;42.968;1.608;2023-07-20T01:30:56;97328.59;;;20.78;82.87
70254;BME280;57649;42.968;1.608;2023-07-20T01:33:25;97334.75;;;20.85;82.79
70254;BME280;57649;42.968;1.608;2023-07-20T01:35:58;97332.28;;;20.84;82.32
70254;BME280;57649;42.968;1.608;2023-07-20T01:38:25;97329.66;;;20.65;83.04
70254;BME280;57649;42.968;1.608;2023-07-20T01:40:51;97327.66;;;20.61;83.64
70254;BME280;57649;42.968;1.608;2023-07-20T01:43:17;97327.66;;;20.61;84.41
70254;BME280;57649;42.968;1.608;2023-07-20T01:45:43;97326.56;;;20.62;85.28
70254;BME280;57649;42.968;1.608;2023-07-20T01:48:09;97313.53;;;20.52;86.06
70254;BME280;57649;42.968;1.608;2023-07-20T01:50:34;97322.25;;;20.42;87.32
70254;BME280;57649;42.968;1.608;2023-07-20T01:53:00;97321.84;;;20.27;87.79
70254;BME280;57649;42.968;1.608;2023-07-20T01:55:26;97315.38;;;20.28;87.75
70254;BME280;57649;42.968;1.608;2023-07-20T01:57:51;97314.44;;;20.04;88.93
70254;BME280;57649;42.968;1.608;2023-07-20T02:00:17;97319.69;;;19.87;90.00
70254;BME280;57649;42.968;1.608;2023-07-20T02:02:44;97324.09;;;19.69;91.60
70254;BME280;57649;42.968;1.608;2023-07-20T02:05:09;97300.91;;;19.67;92.16
70254;BME280;57649;42.968;1.608;2023-07-20T02:07:35;97306.59;;;19.47;93.19
70254;BME280;57649;42.968;1.608;2023-07-20T02:10:00;97315.81;;;19.46;93.86
70254;BME280;57649;42.968;1.608;2023-07-20T02:12:25;97313.75;;;19.41;94.25
70254;BME280;57649;42.968;1.608;2023-07-20T02:14:51;97318.81;;;19.37;94.61
70254;BME280;57649;42.968;1.608;2023-07-20T02:17:17;97301.88;;;19.23;95.24
70254;BME280;57649;42.968;1.608;2023-07-20T02:19:42;97314.38;;;19.24;95.89
70254;BME280;57649;42.968;1.608;2023-07-20T02:22:07;97306.59;;;19.10;96.84
70254;BME280;57649;42.968;1.608;2023-07-20T02:24:33;97319.13;;;19.11;97.73
70254;BME280;57649;42.968;1.608;2023-07-20T02:26:59;97303.88;;;18.91;98.92
70254;BME280;57649;42.968;1.608;2023-07-20T02:29:24;97305.97;;;18.89;99.65
70254;BME280;57649;42.968;1.608;2023-07-20T02:31:50;97308.91;;;18.88;100.00
70254;BME280;57649;42.968;1.608;2023-07-20T02:34:15;97304.16;;;18.83;100.00
70254;BME280;57649;42.968;1.608;2023-07-20T02:36:41;97296.28;;;18.75;100.00
70254;BME280;57649;42.968;1.608;2023-07-20T02:39:08;97302.53;;;18.75;100.00
70254;BME280;57649;42.968;1.608;2023-07-20T02:41:34;97303.81;;;18.73;100.00
70254;BME280;57649;42.968;1.608;2023-07-20T02:43:59;97306.50;;;18.73;100.00
70254;BME280;57649;42.968;1.608;2023-07-20T02:46:25;97301.34;;;18.64;100.00
70254;BME280;57649;42.968;1.608;2023-07-20T02:48:50;97299.94;;;18.62;100.00
70254;BME280;57649;42.968;1.608;2023-07-20T02:51:16;97295.28;;;18.69;100.00
70254;BME280;57649;42.968;1.608;2023-07-20T02:53:41;97289.91;;;18.62;100.00
70254;BME280;57649;42.968;1.608;2023-07-20T02:56:07;97282.63;;;18.63;100.00
70254;BME280;57649;42.968;1.608;2023-07-20T02:58:34;97290.09;;;18.67;100.00
70254;BME280;57649;42.968;1.608;2023-07-20T03:01:02;97290.91;;;18.68;100.00
70254;BME280;57649;42.968;1.608;2023-07-20T03:03:28;97291.88;;;18.74;100.00
70254;BME280;57649;42.968;1.608;2023-07-20T03:05:53;97285.94;;;18.65;100.00
70254;BME280;57649;42.968;1.608;2023-07-20T03:08:21;97288.91;;;18.57;100.00
70254;BME280;57649;42.968;1.608;2023-07-20T03:10:46;97290.81;;;18.56;100.00
70254;BME280;57649;42.968;1.608;2023-07-20T03:13:12;97287.06;;;18.57;100.00
70254;BME280;57649;42.968;1.608;2023-07-20T03:15:39;97282.69;;;18.56;100.00
70254;BME280;57649;42.968;1.608;2023-07-20T03:18:04;97281.78;;;18.62;100.00
70254;BME280;57649;42.968;1.608;2023-07-20T03:20:31;97282.63;;;18.63;100.00
70254;BME280;57649;42.968;1.608;2023-07-20T03:22:56;97279.97;;;18.56;100.00
70254;BME280;57649;42.968;1.608;2023-07-20T03:25:22;97287.09;;;18.51;100.00
70254;BME280;57649;42.968;1.608;2023-07-20T03:27:47;97282.59;;;18.44;100.00
70254;BME280;57649;42.968;1.608;2023-07-20T03:30:13;97284.19;;;18.52;100.00
70254;BME280;57649;42.968;1.608;2023-07-20T03:32:38;97289.44;;;18.72;100.00
70254;BME280;57649;42.968;1.608;2023-07-20T03:35:04;97285.09;;;18.64;100.00
70254;BME280;57649;42.968;1.608;2023-07-20T03:37:29;97279.13;;;18.81;100.00
70254;BME280;57649;42.968;1.608;2023-07-20T03:39:55;97279.75;;;18.83;100.00
70254;BME280;57649;42.968;1.608;2023-07-20T03:42:20;97279.34;;;18.79;100.00
70254;BME280;57649;42.968;1.608;2023-07-20T03:44:46;97282.13;;;18.73;100.00
70254;BME280;57649;42.968;1.608;2023-07-20T03:47:11;97268.06;;;18.82;100.00
70254;BME280;57649;42.968;1.608;2023-07-20T03:49:37;97273.22;;;18.91;99.87
70254;BME280;57649;42.968;1.608;2023-07-20T03:52:03;97267.66;;;18.79;99.99
70254;BME280;57649;42.968;1.608;2023-07-20T03:54:29;97266.34;;;18.88;99.91
70254;BME280;57649;42.968;1.608;2023-07-20T03:56:54;97264.22;;;18.90;100.00
70254;BME280;57649;42.968;1.608;2023-07-20T03:59:20;97270.13;;;18.87;100.00
70254;BME280;57649;42.968;1.608;2023-07-20T04:01:45;97257.09;;;18.96;99.83
70254;BME280;57649;42.968;1.608;2023-07-20T04:04:10;97267.56;;;18.92;99.71
70254;BME280;57649;42.968;1.608;2023-07-20T04:06:36;97270.94;;;18.88;100.00
70254;BME280;57649;42.968;1.608;2023-07-20T04:09:03;97269.72;;;18.83;100.00
70254;BME280;57649;42.968;1.608;2023-07-20T04:11:30;97266.50;;;18.93;100.00
70254;BME280;57649;42.968;1.608;2023-07-20T04:13:55;97271.38;;;19.03;99.43
70254;BME280;57649;42.968;1.608;2023-07-20T04:16:21;97269.00;;;18.95;99.95
70254;BME280;57649;42.968;1.608;2023-07-20T04:18:47;97261.59;;;19.02;99.87
70254;BME280;57649;42.968;1.608;2023-07-20T04:21:12;97258.69;;;19.03;100.00
70254;BME280;57649;42.968;1.608;2023-07-20T04:23:37;97255.59;;;19.00;100.00
70254;BME280;57649;42.968;1.608;2023-07-20T04:26:03;97244.41;;;18.90;100.00
70254;BME280;57649;42.968;1.608;2023-07-20T04:28:28;97254.72;;;18.81;100.00
70254;BME280;57649;42.968;1.608;2023-07-20T04:30:53;97255.22;;;18.71;100.00
70254;BME280;57649;42.968;1.608;2023-07-20T04:33:19;97257.84;;;18.59;100.00
70254;BME280;57649;42.968;1.608;2023-07-20T04:35:47;97239.47;;;18.61;100.00
70254;BME280;57649;42.968;1.608;2023-07-20T04:38:13;97251.94;;;18.62;100.00
70254;BME280;57649;42.968;1.608;2023-07-20T04:40:40;97247.13;;;18.64;100.00
70254;BME280;57649;42.968;1.608;2023-07-20T04:43:05;97239.75;;;18.72;100.00
70254;BME280;57649;42.968;1.608;2023-07-20T04:45:31;97231.41;;;18.73;100.00
70254;BME280;57649;42.968;1.608;2023-07-20T04:47:56;97243.22;;;18.60;100.00
70254;BME280;57649;42.968;1.608;2023-07-20T04:50:22;97236.44;;;18.70;100.00
70254;BME280;57649;42.968;1.608;2023-07-20T04:52:49;97230.53;;;18.79;100.00
70254;BME280;57649;42.968;1.608;2023-07-20T04:55:15;97233.03;;;18.81;100.00
70254;BME280;57649;42.968;1.608;2023-07-20T04:57:40;97228.66;;;18.80;100.00
70254;BME280;57649;42.968;1.608;2023-07-20T05:00:06;97224.22;;;18.85;100.00
70254;BME280;57649;42.968;1.608;2023-07-20T05:02:31;97223.84;;;18.82;100.00
70254;BME280;57649;42.968;1.608;2023-07-20T05:04:57;97224.16;;;18.92;99.78
70254;BME280;57649;42.968;1.608;2023-07-20T05:07:22;97223.25;;;18.98;99.12
70254;BME280;57649;42.968;1.608;2023-07-20T05:09:47;97235.06;;;18.85;99.55
70254;BME280;57649;42.968;1.608;2023-07-20T05:12:13;97237.47;;;18.94;98.69
70254;BME280;57649;42.968;1.608;2023-07-20T05:14:38;97234.63;;;18.89;99.59
70254;BME280;57649;42.968;1.608;2023-07-20T05:17:04;97231.31;;;18.87;99.00
70254;BME280;57649;42.968;1.608;2023-07-20T05:19:29;97224.44;;;19.02;98.58
70254;BME280;57649;42.968;1.608;2023-07-20T05:21:55;97228.91;;;18.97;98.57
70254;BME280;57649;42.968;1.608;2023-07-20T05:24:21;97218.28;;;18.95;98.75
70254;BME280;57649;42.968;1.608;2023-07-20T05:26:47;97220.22;;;18.88;98.85
70254;BME280;57649;42.968;1.608;2023-07-20T05:29:13;97216.31;;;18.84;99.07
70254;BME280;57649;42.968;1.608;2023-07-20T05:31:39;97215.78;;;18.94;99.08
70254;BME280;57649;42.968;1.608;2023-07-20T05:34:04;97204.34;;;18.92;98.99
70254;BME280;57649;42.968;1.608;2023-07-20T05:36:30;97220.16;;;18.95;99.83
70254;BME280;57649;42.968;1.608;2023-07-20T05:38:56;97212.47;;;18.92;100.00
70254;BME280;57649;42.968;1.608;2023-07-20T05:41:21;97211.72;;;19.03;99.93
70254;BME280;57649;42.968;1.608;2023-07-20T05:43:48;97210.72;;;19.16;99.33
70254;BME280;57649;42.968;1.608;2023-07-20T05:46:13;97206.00;;;19.11;98.90
70254;BME280;57649;42.968;1.608;2023-07-20T05:48:38;97207.84;;;19.29;97.68
70254;BME280;57649;42.968;1.608;2023-07-20T05:51:05;97206.84;;;19.42;97.04
70254;BME280;57649;42.968;1.608;2023-07-20T05:53:30;97209.56;;;19.42;96.57
70254;BME280;57649;42.968;1.608;2023-07-20T05:55:56;97205.78;;;19.43;96.35
70254;BME280;57649;42.968;1.608;2023-07-20T05:58:21;97213.03;;;19.49;95.80
70254;BME280;57649;42.968;1.608;2023-07-20T06:00:48;97208.03;;;19.46;96.30
70254;BME280;57649;42.968;1.608;2023-07-20T06:03:14;97206.16;;;19.47;96.71
70254;BME280;57649;42.968;1.608;2023-07-20T06:05:42;97209.16;;;19.57;96.66
70254;BME280;57649;42.968;1.608;2023-07-20T06:08:07;97203.94;;;19.55;97.16
70254;BME280;57649;42.968;1.608;2023-07-20T06:10:33;97202.56;;;19.65;96.55
70254;BME280;57649;42.968;1.608;2023-07-20T06:12:58;97202.34;;;19.66;96.56
70254;BME280;57649;42.968;1.608;2023-07-20T06:15:33;97205.03;;;19.85;96.18
70254;BME280;57649;42.968;1.608;2023-07-20T06:18:02;97202.16;;;19.79;95.76
70254;BME280;57649;42.968;1.608;2023-07-20T06:20:28;97193.44;;;19.77;95.19
70254;BME280;57649;42.968;1.608;2023-07-20T06:22:54;97202.94;;;19.98;93.94
70254;BME280;57649;42.968;1.608;2023-07-20T06:25:19;97198.06;;;19.89;93.32
70254;BME280;57649;42.968;1.608;2023-07-20T06:27:46;97209.06;;;19.94;91.45
70254;BME280;57649;42.968;1.608;2023-07-20T06:30:11;97200.59;;;20.02;90.59
70254;BME280;57649;42.968;1.608;2023-07-20T06:32:38;97201.41;;;20.03;90.93
70254;BME280;57649;42.968;1.608;2023-07-20T06:35:05;97195.38;;;20.12;91.20
70254;BME280;57649;42.968;1.608;2023-07-20T06:37:30;97195.16;;;20.14;90.17
70254;BME280;57649;42.968;1.608;2023-07-20T06:39:55;97188.19;;;20.18;89.99
70254;BME280;57649;42.968;1.608;2023-07-20T06:42:21;97195.50;;;20.17;89.94
70254;BME280;57649;42.968;1.608;2023-07-20T06:44:46;97186.66;;;20.34;90.37
70254;BME280;57649;42.968;1.608;2023-07-20T06:47:12;97194.72;;;20.41;89.21
70254;BME280;57649;42.968;1.608;2023-07-20T06:49:37;97189.50;;;20.39;89.41
70254;BME280;57649;42.968;1.608;2023-07-20T06:52:03;97195.53;;;20.41;89.74
70254;BME280;57649;42.968;1.608;2023-07-20T06:54:28;97203.47;;;20.43;89.78
70254;BME280;57649;42.968;1.608;2023-07-20T06:56:53;97199.31;;;20.52;89.38
70254;BME280;57649;42.968;1.608;2023-07-20T06:59:19;97195.41;;;20.60;88.49
70254;BME280;57649;42.968;1.608;2023-07-20T07:01:44;97193.38;;;20.55;88.32
70254;BME280;57649;42.968;1.608;2023-07-20T07:04:10;97188.91;;;20.49;88.25
70254;BME280;57649;42.968;1.608;2023-07-20T07:06:36;97204.25;;;20.55;87.88
70254;BME280;57649;42.968;1.608;2023-07-20T07:09:02;97203.22;;;20.68;87.77
70254;BME280;57649;42.968;1.608;2023-07-20T07:11:28;97204.66;;;20.70;86.86
70254;BME280;57649;42.968;1.608;2023-07-20T07:13:54;97198.13;;;20.71;86.46
70254;BME280;57649;42.968;1.608;2023-07-20T07:16:19;97197.56;;;20.81;85.84
70254;BME280;57649;42.968;1.608;2023-07-20T07:18:45;97198.03;;;20.78;86.21
70254;BME280;57649;42.968;1.608;2023-07-20T07:21:14;97191.75;;;20.77;85.17
70254;BME280;57649;42.968;1.608;2023-07-20T07:23:39;97186.75;;;20.98;85.16
70254;BME280;57649;42.968;1.608;2023-07-20T07:26:05;97194.22;;;21.03;84.21
70254;BME280;57649;42.968;1.608;2023-07-20T07:28:30;97193.19;;;21.21;82.94
70254;BME280;57649;42.968;1.608;2023-07-20T07:30:57;97185.03;;;21.21;82.76
70254;BME280;57649;42.968;1.608;2023-07-20T07:33:22;97177.25;;;21.12;82.89
70254;BME280;57649;42.968;1.608;2023-07-20T07:35:49;97182.63;;;21.36;81.22
70254;BME280;57649;42.968;1.608;2023-07-20T07:38:15;97184.38;;;21.42;80.80
70254;BME280;57649;42.968;1.608;2023-07-20T07:40:40;97185.41;;;21.53;80.75
70254;BME280;57649;42.968;1.608;2023-07-20T07:43:05;97176.59;;;21.63;79.44
70254;BME280;57649;42.968;1.608;2023-07-20T07:45:34;97177.09;;;21.60;79.21
70254;BME280;57649;42.968;1.608;2023-07-20T07:48:01;97179.44;;;21.85;77.75
70254;BME280;57649;42.968;1.608;2023-07-20T07:50:27;97174.66;;;21.92;77.45
70254;BME280;57649;42.968;1.608;2023-07-20T07:52:53;97175.50;;;21.92;78.26
70254;BME280;57649;42.968;1.608;2023-07-20T07:55:18;97168.97;;;22.10;77.95
70254;BME280;57649;42.968;1.608;2023-07-20T07:57:44;97176.84;;;22.24;77.77
70254;BME280;57649;42.968;1.608;2023-07-20T08:00:10;97171.69;;;22.10;76.91
70254;BME280;57649;42.968;1.608;2023-07-20T08:02:42;97171.06;;;22.20;76.43
70254;BME280;57649;42.968;1.608;2023-07-20T08:05:08;97175.09;;;22.18;76.27
70254;BME280;57649;42.968;1.608;2023-07-20T08:07:33;97171.47;;;22.29;75.82
70254;BME280;57649;42.968;1.608;2023-07-20T08:09:59;97173.31;;;22.40;76.32
70254;BME280;57649;42.968;1.608;2023-07-20T08:12:25;97170.53;;;22.57;74.57
70254;BME280;57649;42.968;1.608;2023-07-20T08:14:51;97171.59;;;22.73;73.95
70254;BME280;57649;42.968;1.608;2023-07-20T08:17:16;97176.59;;;22.81;73.14
70254;BME280;57649;42.968;1.608;2023-07-20T08:19:42;97174.31;;;22.73;72.75
70254;BME280;57649;42.968;1.608;2023-07-20T08:22:09;97168.56;;;22.53;74.21
70254;BME280;57649;42.968;1.608;2023-07-20T08:24:39;97172.88;;;22.48;73.27
70254;BME280;57649;42.968;1.608;2023-07-20T08:27:05;97161.47;;;22.52;73.42
70254;BME280;57649;42.968;1.608;2023-07-20T08:29:30;97163.09;;;22.70;72.85
70254;BME280;57649;42.968;1.608;2023-07-20T08:31:56;97152.72;;;23.11;70.23
70254;BME280;57649;42.968;1.608;2023-07-20T08:34:21;97157.63;;;23.85;67.98
70254;BME280;57649;42.968;1.608;2023-07-20T08:36:46;97155.06;;;24.81;63.14
70254;BME280;57649;42.968;1.608;2023-07-20T08:39:12;97158.19;;;24.57;64.41
70254;BME280;57649;42.968;1.608;2023-07-20T08:41:38;97145.94;;;24.27;65.26
70254;BME280;57649;42.968;1.608;2023-07-20T08:44:05;97149.22;;;24.29;65.40
70254;BME280;57649;42.968;1.608;2023-07-20T08:46:31;97144.13;;;24.91;62.86
70254;BME280;57649;42.968;1.608;2023-07-20T08:48:57;97148.69;;;25.33;60.84
70254;BME280;57649;42.968;1.608;2023-07-20T08:51:23;97145.72;;;25.40;60.40
70254;BME280;57649;42.968;1.608;2023-07-20T08:53:50;97150.22;;;26.02;58.73
70254;BME280;57649;42.968;1.608;2023-07-20T08:56:16;97136.72;;;26.73;55.64
70254;BME280;57649;42.968;1.608;2023-07-20T08:58:44;97122.91;;;26.93;53.90
70254;BME280;57649;42.968;1.608;2023-07-20T09:01:10;97139.41;;;26.93;53.71
70254;BME280;57649;42.968;1.608;2023-07-20T09:03:36;97134.81;;;26.68;53.46
70254;BME280;57649;42.968;1.608;2023-07-20T09:06:05;97127.81;;;27.06;53.31
70254;BME280;57649;42.968;1.608;2023-07-20T09:08:31;97122.97;;;27.43;51.14
70254;BME280;57649;42.968;1.608;2023-07-20T09:10:57;97121.41;;;27.21;51.46
70254;BME280;57649;42.968;1.608;2023-07-20T09:13:25;97125.00;;;27.22;52.71
70254;BME280;57649;42.968;1.608;2023-07-20T09:15:53;97116.28;;;27.59;52.35
70254;BME280;57649;42.968;1.608;2023-07-20T09:18:30;97122.00;;;27.18;52.41
70254;BME280;57649;42.968;1.608;2023-07-20T09:21:02;97109.81;;;27.79;50.90
70254;BME280;57649;42.968;1.608;2023-07-20T09:23:36;97112.91;;;28.07;50.11
70254;BME280;57649;42.968;1.608;2023-07-20T09:26:14;97103.66;;;28.27;49.19
70254;BME280;57649;42.968;1.608;2023-07-20T09:28:59;97101.38;;;28.64;48.22
70254;BME280;57649;42.968;1.608;2023-07-20T09:31:24;97095.94;;;28.29;49.21
70254;BME280;57649;42.968;1.608;2023-07-20T09:33:52;97099.31;;;28.50;49.13
70254;BME280;57649;42.968;1.608;2023-07-20T09:36:18;97100.22;;;28.70;48.82
70254;BME280;57649;42.968;1.608;2023-07-20T09:38:43;97102.66;;;28.71;47.97
70254;BME280;57649;42.968;1.608;2023-07-20T09:41:13;97096.34;;;28.95;47.79
70254;BME280;57649;42.968;1.608;2023-07-20T09:43:39;97098.63;;;28.64;48.53
70254;BME280;57649;42.968;1.608;2023-07-20T09:46:05;97099.84;;;28.23;48.86
70254;BME280;57649;42.968;1.608;2023-07-20T09:48:30;97098.69;;;27.60;50.45
70254;BME280;57649;42.968;1.608;2023-07-20T09:50:56;97090.31;;;27.36;52.54
70254;BME280;57649;42.968;1.608;2023-07-20T09:53:24;97089.63;;;27.05;52.44
70254;BME280;57649;42.968;1.608;2023-07-20T09:55:50;97088.41;;;26.66;53.54
70254;BME280;57649;42.968;1.608;2023-07-20T09:58:17;97089.34;;;26.05;55.49
70254;BME280;57649;42.968;1.608;2023-07-20T10:00:44;97089.31;;;25.85;56.78
70254;BME280;57649;42.968;1.608;2023-07-20T10:03:14;97069.28;;;25.59;58.01
70254;BME280;57649;42.968;1.608;2023-07-20T10:05:43;97087.94;;;25.77;57.46
70254;BME280;57649;42.968;1.608;2023-07-20T10:08:12;97080.25;;;25.43;58.19
70254;BME280;57649;42.968;1.608;2023-07-20T10:10:41;97070.97;;;25.70;57.43
70254;BME280;57649;42.968;1.608;2023-07-20T10:13:13;97065.72;;;25.43;57.42
70254;BME280;57649;42.968;1.608;2023-07-20T10:15:59;97071.69;;;25.19;57.78
70254;BME280;57649;42.968;1.608;2023-07-20T10:18:50;97053.66;;;25.33;57.58
70254;BME280;57649;42.968;1.608;2023-07-20T10:21:19;97059.66;;;25.30;58.10
70254;BME280;57649;42.968;1.608;2023-07-20T10:23:48;97068.75;;;25.67;56.97
70254;BME280;57649;42.968;1.608;2023-07-20T10:26:13;97061.06;;;25.84;55.14
70254;BME280;57649;42.968;1.608;2023-07-20T10:28:39;97056.63;;;26.40;54.07
70254;BME280;57649;42.968;1.608;2023-07-20T10:31:10;97046.91;;;27.33;53.11
70254;BME280;57649;42.968;1.608;2023-07-20T10:33:37;97042.19;;;27.39;52.43
70254;BME280;57649;42.968;1.608;2023-07-20T10:36:04;97052.78;;;26.41;55.36
70254;BME280;57649;42.968;1.608;2023-07-20T10:41:32;97052.56;;;25.86;57.37
70254;BME280;57649;42.968;1.608;2023-07-20T10:44:02;97039.56;;;26.58;54.53
70254;BME280;57649;42.968;1.608;2023-07-20T10:46:41;97036.91;;;27.82;51.70
70254;BME280;57649;42.968;1.608;2023-07-20T10:49:09;97024.88;;;28.31;50.02
70254;BME280;57649;42.968;1.608;2023-07-20T10:51:40;97030.63;;;28.35;49.32
70254;BME280;57649;42.968;1.608;2023-07-20T10:56:51;97030.56;;;28.16;49.71
70254;BME280;57649;42.968;1.608;2023-07-20T11:01:49;97028.84;;;27.96;50.69
70254;BME280;57649;42.968;1.608;2023-07-20T11:04:15;97018.88;;;28.53;48.33
70254;BME280;57649;42.968;1.608;2023-07-20T11:06:45;97018.38;;;29.32;46.87
70254;BME280;57649;42.968;1.608;2023-07-20T11:09:14;97020.50;;;29.22;46.92
70254;BME280;57649;42.968;1.608;2023-07-20T11:11:47;97011.84;;;29.28;47.20
70254;BME280;57649;42.968;1.608;2023-07-20T11:14:26;97010.50;;;29.45;47.21
70254;BME280;57649;42.968;1.608;2023-07-20T11:16:53;97006.75;;;28.97;47.18
70254;BME280;57649;42.968;1.608;2023-07-20T11:19:23;97006.09;;;28.63;48.75
70254;BME280;57649;42.968;1.608;2023-07-20T11:21:53;97006.31;;;27.89;50.69
70254;BME280;57649;42.968;1.608;2023-07-20T11:24:19;97010.56;;;27.41;51.54
70254;BME280;57649;42.968;1.608;2023-07-20T11:26:52;96999.53;;;28.10;51.38
70254;BME280;57649;42.968;1.608;2023-07-20T11:29:22;96989.47;;;28.92;48.71
70254;BME280;57649;42.968;1.608;2023-07-20T11:31:50;96989.25;;;29.07;47.76
70254;BME280;57649;42.968;1.608;2023-07-20T11:34:17;96989.41;;;28.97;47.89
70254;BME280;57649;42.968;1.608;2023-07-20T11:36:45;96995.66;;;29.03;49.01
70254;BME280;57649;42.968;1.608;2023-07-20T11:39:12;96984.69;;;28.59;49.81
70254;BME280;57649;42.968;1.608;2023-07-20T11:41:38;96988.88;;;28.76;48.74
70254;BME280;57649;42.968;1.608;2023-07-20T11:44:09;96977.69;;;29.43;47.44
70254;BME280;57649;42.968;1.608;2023-07-20T11:46:39;96978.94;;;29.18;47.83
70254;BME280;57649;42.968;1.608;2023-07-20T11:49:05;96976.22;;;29.13;48.63
70254;BME280;57649;42.968;1.608;2023-07-20T11:51:31;96963.53;;;28.74;49.03
70254;BME280;57649;42.968;1.608;2023-07-20T11:53:57;96969.72;;;28.41;49.61
70254;BME280;57649;42.968;1.608;2023-07-20T11:56:24;96954.41;;;28.78;49.21
70254;BME280;57649;42.968;1.608;2023-07-20T11:58:50;96957.09;;;28.84;48.07
70254;BME280;57649;42.968;1.608;2023-07-20T12:01:15;96954.16;;;28.94;49.01
70254;BME280;57649;42.968;1.608;2023-07-20T12:03:43;96966.59;;;28.48;48.99
70254;BME280;57649;42.968;1.608;2023-07-20T12:06:13;96964.56;;;28.35;49.56
70254;BME280;57649;42.968;1.608;2023-07-20T12:08:42;96967.22;;;28.21;50.18
70254;BME280;57649;42.968;1.608;2023-07-20T12:11:08;96961.06;;;28.05;50.48
70254;BME280;57649;42.968;1.608;2023-07-20T12:16:14;96954.31;;;28.65;50.65
70254;BME280;57649;42.968;1.608;2023-07-20T12:18:42;96951.50;;;28.89;49.11
70254;BME280;57649;42.968;1.608;2023-07-20T12:21:08;96940.47;;;28.70;49.71
70254;BME280;57649;42.968;1.608;2023-07-20T12:23:38;96932.59;;;29.20;48.27
70254;BME280;57649;42.968;1.608;2023-07-20T12:26:07;96923.88;;;28.56;49.35
70254;BME280;57649;42.968;1.608;2023-07-20T12:28:33;96927.31;;;28.86;49.49
70254;BME280;57649;42.968;1.608;2023-07-20T12:30:58;96920.16;;;28.66;48.78
70254;BME280;57649;42.968;1.608;2023-07-20T12:33:23;96912.69;;;28.66;48.42
70254;BME280;57649;42.968;1.608;2023-07-20T12:35:49;96917.09;;;29.05;48.13
70254;BME280;57649;42.968;1.608;2023-07-20T12:38:16;96921.41;;;29.11;47.89
70254;BME280;57649;42.968;1.608;2023-07-20T12:40:42;96908.84;;;29.05;47.95
70254;BME280;57649;42.968;1.608;2023-07-20T12:43:07;96905.31;;;28.99;47.22
70254;BME280;57649;42.968;1.608;2023-07-20T12:45:33;96907.44;;;28.89;47.37
70254;BME280;57649;42.968;1.608;2023-07-20T12:47:59;96903.69;;;29.17;46.82
70254;BME280;57649;42.968;1.608;2023-07-20T12:50:24;96898.72;;;29.66;45.78
70254;BME280;57649;42.968;1.608;2023-07-20T12:52:50;96899.69;;;29.43;47.24
70254;BME280;57649;42.968;1.608;2023-07-20T12:55:15;96894.38;;;29.46;46.41
70254;BME280;57649;42.968;1.608;2023-07-20T12:57:41;96888.72;;;29.24;47.21
70254;BME280;57649;42.968;1.608;2023-07-20T13:00:09;96889.75;;;29.09;46.30
70254;BME280;57649;42.968;1.608;2023-07-20T13:02:35;96890.81;;;29.79;46.40
70254;BME280;57649;42.968;1.608;2023-07-20T13:05:01;96891.09;;;29.77;46.33
70254;BME280;57649;42.968;1.608;2023-07-20T13:07:45;96876.94;;;29.65;46.43
70254;BME280;57649;42.968;1.608;2023-07-20T13:10:11;96886.75;;;29.57;46.98
70254;BME280;57649;42.968;1.608;2023-07-20T13:12:37;96884.84;;;29.06;46.95
70254;BME280;57649;42.968;1.608;2023-07-20T13:15:05;96877.56;;;29.15;47.35